<?xml version="1.0" encoding="UTF-8" standalone="no" ?>
<gpx xmlns="http://www.topografix.com/GPX/1/1" xmlns:xsi="http://www.w3.org/2001/XMLSchema-instance" xsi:schemaLocation="http://www.topografix.com/GPX/1/1 http://www.topografix.com/GPX/1/1/gpx.xsd" version="1.1" creator="VisuGPX - https://www.visugpx.com">
  <metadata>
    <name>St Jean-Le Mercuel via Charnècles, OR14955392</name>
    <desc><![CDATA[11km, 270m]]></desc>
  </metadata>
  <trk>
    <name><![CDATA[14955392-St Jean-Le Mercuel via Charnècles]]></name>
    <extensions>
      <line xmlns="http://www.topografix.com/GPX/gpx_style/0/2">
        <color>0000FF</color>
        <width>4</width>
      </line>
    </extensions>
    <trkseg>
      <trkpt lat="45.34003" lon="5.5834">
        <ele>210.8</ele>
        <time>2022-06-13T12:37:23Z</time>
      </trkpt>
      <trkpt lat="45.34057" lon="5.58328">
        <ele>216.1</ele>
        <time>2022-06-13T12:37:25Z</time>
      </trkpt>
      <trkpt lat="45.3409" lon="5.5831">
        <ele>219.2</ele>
        <time>2022-06-13T12:37:37Z</time>
      </trkpt>
      <trkpt lat="45.34121" lon="5.58283">
        <ele>222.2</ele>
        <time>2022-06-13T12:37:42Z</time>
      </trkpt>
      <trkpt lat="45.34152" lon="5.58242">
        <ele>223.6</ele>
        <time>2022-06-13T12:37:49Z</time>
      </trkpt>
      <trkpt lat="45.34174" lon="5.58219">
        <ele>224.4</ele>
      </trkpt>
      <trkpt lat="45.34211" lon="5.58162">
        <ele>226.8</ele>
        <time>2022-06-13T12:37:53Z</time>
      </trkpt>
      <trkpt lat="45.34191" lon="5.58156">
        <ele>226.3</ele>
        <time>2022-06-13T12:37:57Z</time>
      </trkpt>
      <trkpt lat="45.34153" lon="5.58135">
        <ele>225.6</ele>
        <time>2022-06-13T12:38:04Z</time>
      </trkpt>
      <trkpt lat="45.34112" lon="5.58097">
        <ele>226.5</ele>
        <time>2022-06-13T12:38:13Z</time>
      </trkpt>
      <trkpt lat="45.34098" lon="5.58061">
        <ele>226.9</ele>
        <time>2022-06-13T12:38:18Z</time>
      </trkpt>
      <trkpt lat="45.34086" lon="5.5804">
        <ele>227</ele>
        <time>2022-06-13T12:38:21Z</time>
      </trkpt>
      <trkpt lat="45.34079" lon="5.58009">
        <ele>226.8</ele>
        <time>2022-06-13T12:38:25Z</time>
      </trkpt>
      <trkpt lat="45.34069" lon="5.57992">
        <ele>226.9</ele>
        <time>2022-06-13T12:38:28Z</time>
      </trkpt>
      <trkpt lat="45.3403" lon="5.57945">
        <ele>228.1</ele>
        <time>2022-06-13T12:38:37Z</time>
      </trkpt>
      <trkpt lat="45.33972" lon="5.57893">
        <ele>227.7</ele>
        <time>2022-06-13T12:38:49Z</time>
      </trkpt>
      <trkpt lat="45.33936" lon="5.57833">
        <ele>226.4</ele>
        <time>2022-06-13T12:38:59Z</time>
      </trkpt>
      <trkpt lat="45.33919" lon="5.5776">
        <ele>223.5</ele>
        <time>2022-06-13T12:39:09Z</time>
      </trkpt>
      <trkpt lat="45.33891" lon="5.57704">
        <ele>225.7</ele>
        <time>2022-06-13T12:39:18Z</time>
      </trkpt>
      <trkpt lat="45.33863" lon="5.5766">
        <ele>224.3</ele>
        <time>2022-06-13T12:39:25Z</time>
      </trkpt>
      <trkpt lat="45.33842" lon="5.57633">
        <ele>222.3</ele>
        <time>2022-06-13T12:39:30Z</time>
      </trkpt>
      <trkpt lat="45.33826" lon="5.57619">
        <ele>221.1</ele>
        <time>2022-06-13T12:39:33Z</time>
      </trkpt>
      <trkpt lat="45.33804" lon="5.57606">
        <ele>219.4</ele>
        <time>2022-06-13T12:39:38Z</time>
      </trkpt>
      <trkpt lat="45.33747" lon="5.57578">
        <ele>217.6</ele>
        <time>2022-06-13T12:39:48Z</time>
      </trkpt>
      <trkpt lat="45.33736" lon="5.5757">
        <ele>217.7</ele>
        <time>2022-06-13T12:39:50Z</time>
      </trkpt>
      <trkpt lat="45.33716" lon="5.57555">
        <ele>216.4</ele>
        <time>2022-06-13T12:39:55Z</time>
      </trkpt>
      <trkpt lat="45.33696" lon="5.57523">
        <ele>216.7</ele>
        <time>2022-06-13T12:40:00Z</time>
      </trkpt>
      <trkpt lat="45.33614" lon="5.57327">
        <ele>218</ele>
        <time>2022-06-13T12:40:28Z</time>
      </trkpt>
      <trkpt lat="45.33538" lon="5.57133">
        <ele>220.4</ele>
        <time>2022-06-13T12:40:56Z</time>
      </trkpt>
      <trkpt lat="45.3352" lon="5.57096">
        <ele>221.4</ele>
        <time>2022-06-13T12:41:02Z</time>
      </trkpt>
      <trkpt lat="45.33414" lon="5.56954">
        <ele>221.6</ele>
        <time>2022-06-13T12:41:28Z</time>
      </trkpt>
      <trkpt lat="45.33362" lon="5.56879">
        <ele>222.4</ele>
        <time>2022-06-13T12:41:41Z</time>
      </trkpt>
      <trkpt lat="45.33348" lon="5.5685">
        <ele>222.5</ele>
        <time>2022-06-13T12:41:45Z</time>
      </trkpt>
      <trkpt lat="45.33317" lon="5.56779">
        <ele>221.8</ele>
        <time>2022-06-13T12:41:56Z</time>
      </trkpt>
      <trkpt lat="45.33296" lon="5.56744">
        <ele>221.3</ele>
        <time>2022-06-13T12:42:01Z</time>
      </trkpt>
      <trkpt lat="45.33228" lon="5.56664">
        <ele>217.5</ele>
        <time>2022-06-13T12:42:17Z</time>
      </trkpt>
      <trkpt lat="45.3321" lon="5.56639">
        <ele>216.9</ele>
        <time>2022-06-13T12:42:22Z</time>
      </trkpt>
      <trkpt lat="45.33205" lon="5.56631">
        <ele>217.6</ele>
        <time>2022-06-13T12:42:23Z</time>
      </trkpt>
      <trkpt lat="45.33187" lon="5.56596">
        <ele>218.3</ele>
        <time>2022-06-13T12:42:28Z</time>
      </trkpt>
      <trkpt lat="45.3318" lon="5.56576">
        <ele>218.2</ele>
        <time>2022-06-13T12:42:31Z</time>
      </trkpt>
      <trkpt lat="45.33176" lon="5.56552">
        <ele>217.1</ele>
        <time>2022-06-13T12:42:34Z</time>
      </trkpt>
      <trkpt lat="45.33166" lon="5.56417">
        <ele>221.8</ele>
        <time>2022-06-13T12:42:51Z</time>
      </trkpt>
      <trkpt lat="45.33164" lon="5.56407">
        <ele>220.9</ele>
        <time>2022-06-13T12:42:53Z</time>
      </trkpt>
      <trkpt lat="45.33158" lon="5.56395">
        <ele>219.4</ele>
        <time>2022-06-13T12:42:54Z</time>
      </trkpt>
      <trkpt lat="45.33138" lon="5.56363">
        <ele>221.4</ele>
        <time>2022-06-13T12:43:00Z</time>
      </trkpt>
      <trkpt lat="45.33122" lon="5.56348">
        <ele>219.5</ele>
        <time>2022-06-13T12:43:03Z</time>
      </trkpt>
      <trkpt lat="45.33105" lon="5.56343">
        <ele>217.9</ele>
        <time>2022-06-13T12:43:06Z</time>
      </trkpt>
      <trkpt lat="45.33102" lon="5.56343">
        <ele>217.8</ele>
        <time>2022-06-13T12:43:07Z</time>
      </trkpt>
      <trkpt lat="45.33045" lon="5.56367">
        <ele>214.1</ele>
        <time>2022-06-13T12:43:17Z</time>
      </trkpt>
      <trkpt lat="45.33048" lon="5.56352">
        <ele>214.5</ele>
        <time>2022-06-13T12:43:19Z</time>
      </trkpt>
      <trkpt lat="45.33098" lon="5.562">
        <ele>214.9</ele>
        <time>2022-06-13T12:43:40Z</time>
      </trkpt>
      <trkpt lat="45.33115" lon="5.56181">
        <ele>212.5</ele>
        <time>2022-06-13T12:43:44Z</time>
      </trkpt>
      <trkpt lat="45.3312" lon="5.56171">
        <ele>211.5</ele>
        <time>2022-06-13T12:43:46Z</time>
      </trkpt>
      <trkpt lat="45.33119" lon="5.56159">
        <ele>210.3</ele>
        <time>2022-06-13T12:43:47Z</time>
      </trkpt>
      <trkpt lat="45.3311" lon="5.56139">
        <ele>208</ele>
        <time>2022-06-13T12:43:50Z</time>
      </trkpt>
      <trkpt lat="45.33093" lon="5.56125">
        <ele>206.7</ele>
        <time>2022-06-13T12:43:54Z</time>
      </trkpt>
      <trkpt lat="45.33088" lon="5.56118">
        <ele>206.3</ele>
        <time>2022-06-13T12:43:55Z</time>
      </trkpt>
      <trkpt lat="45.33041" lon="5.56058">
        <ele>204.5</ele>
        <time>2022-06-13T12:44:06Z</time>
      </trkpt>
      <trkpt lat="45.32988" lon="5.56029">
        <ele>203.9</ele>
        <time>2022-06-13T12:44:16Z</time>
      </trkpt>
      <trkpt lat="45.32969" lon="5.56017">
        <ele>203.9</ele>
        <time>2022-06-13T12:44:20Z</time>
      </trkpt>
      <trkpt lat="45.32955" lon="5.55999">
        <ele>203.4</ele>
        <time>2022-06-13T12:44:23Z</time>
      </trkpt>
      <trkpt lat="45.32918" lon="5.55959">
        <ele>205.9</ele>
        <time>2022-06-13T12:44:32Z</time>
      </trkpt>
      <trkpt lat="45.32912" lon="5.55965">
        <ele>205.5</ele>
        <time>2022-06-13T12:44:33Z</time>
      </trkpt>
      <trkpt lat="45.32901" lon="5.55969">
        <ele>205.2</ele>
        <time>2022-06-13T12:44:35Z</time>
      </trkpt>
      <trkpt lat="45.32881" lon="5.55969">
        <ele>205.2</ele>
        <time>2022-06-13T12:44:38Z</time>
      </trkpt>
      <trkpt lat="45.32868" lon="5.55973">
        <ele>204.9</ele>
        <time>2022-06-13T12:44:41Z</time>
      </trkpt>
      <trkpt lat="45.32857" lon="5.55984">
        <ele>204.1</ele>
        <time>2022-06-13T12:44:43Z</time>
      </trkpt>
      <trkpt lat="45.32805" lon="5.56083">
        <ele>202</ele>
        <time>2022-06-13T12:44:59Z</time>
      </trkpt>
      <trkpt lat="45.32773" lon="5.56089">
        <ele>200.8</ele>
        <time>2022-06-13T12:45:04Z</time>
      </trkpt>
      <trkpt lat="45.3273" lon="5.56087">
        <ele>200.2</ele>
        <time>2022-06-13T12:45:12Z</time>
      </trkpt>
      <trkpt lat="45.32724" lon="5.56089">
        <ele>200</ele>
        <time>2022-06-13T12:45:13Z</time>
      </trkpt>
      <trkpt lat="45.32711" lon="5.56107">
        <ele>200</ele>
        <time>2022-06-13T12:45:16Z</time>
      </trkpt>
      <trkpt lat="45.32638" lon="5.56124">
        <ele>200</ele>
        <time>2022-06-13T12:45:30Z</time>
      </trkpt>
      <trkpt lat="45.3262" lon="5.56119">
        <ele>199.3</ele>
        <time>2022-06-13T12:45:33Z</time>
      </trkpt>
      <trkpt lat="45.32577" lon="5.56077">
        <ele>199.2</ele>
        <time>2022-06-13T12:45:42Z</time>
      </trkpt>
      <trkpt lat="45.32569" lon="5.56067">
        <ele>199.5</ele>
        <time>2022-06-13T12:45:44Z</time>
      </trkpt>
      <trkpt lat="45.32567" lon="5.56059">
        <ele>199.6</ele>
        <time>2022-06-13T12:45:45Z</time>
      </trkpt>
      <trkpt lat="45.32572" lon="5.56018">
        <ele>199.6</ele>
        <time>2022-06-13T12:45:50Z</time>
      </trkpt>
      <trkpt lat="45.32618" lon="5.55856">
        <ele>202.1</ele>
        <time>2022-06-13T12:46:12Z</time>
      </trkpt>
      <trkpt lat="45.32678" lon="5.55652">
        <ele>202.2</ele>
        <time>2022-06-13T12:46:40Z</time>
      </trkpt>
      <trkpt lat="45.327" lon="5.55574">
        <ele>204.4</ele>
        <time>2022-06-13T12:46:50Z</time>
      </trkpt>
      <trkpt lat="45.32722" lon="5.55502">
        <ele>208</ele>
        <time>2022-06-13T12:47:00Z</time>
      </trkpt>
      <trkpt lat="45.32727" lon="5.55461">
        <ele>209.9</ele>
        <time>2022-06-13T12:47:05Z</time>
      </trkpt>
      <trkpt lat="45.32734" lon="5.55416">
        <ele>213</ele>
        <time>2022-06-13T12:47:11Z</time>
      </trkpt>
      <trkpt lat="45.32744" lon="5.55378">
        <ele>215.6</ele>
        <time>2022-06-13T12:47:16Z</time>
      </trkpt>
      <trkpt lat="45.32766" lon="5.55324">
        <ele>219.3</ele>
        <time>2022-06-13T12:47:24Z</time>
      </trkpt>
      <trkpt lat="45.32784" lon="5.55289">
        <ele>220.9</ele>
        <time>2022-06-13T12:47:29Z</time>
      </trkpt>
      <trkpt lat="45.32915" lon="5.5507">
        <ele>234</ele>
        <time>2022-06-13T12:48:05Z</time>
      </trkpt>
      <trkpt lat="45.32937" lon="5.55006">
        <ele>236</ele>
        <time>2022-06-13T12:48:14Z</time>
      </trkpt>
      <trkpt lat="45.32985" lon="5.54847">
        <ele>247.2</ele>
        <time>2022-06-13T12:48:36Z</time>
      </trkpt>
      <trkpt lat="45.32997" lon="5.54816">
        <ele>248.2</ele>
        <time>2022-06-13T12:48:40Z</time>
      </trkpt>
      <trkpt lat="45.33012" lon="5.54785">
        <ele>250.7</ele>
        <time>2022-06-13T12:48:45Z</time>
      </trkpt>
      <trkpt lat="45.33055" lon="5.54734">
        <ele>255.8</ele>
        <time>2022-06-13T12:48:55Z</time>
      </trkpt>
      <trkpt lat="45.33087" lon="5.54693">
        <ele>256</ele>
        <time>2022-06-13T12:49:03Z</time>
      </trkpt>
      <trkpt lat="45.33132" lon="5.54624">
        <ele>255.2</ele>
        <time>2022-06-13T12:49:14Z</time>
      </trkpt>
      <trkpt lat="45.33184" lon="5.54538">
        <ele>256.8</ele>
        <time>2022-06-13T12:49:29Z</time>
      </trkpt>
      <trkpt lat="45.33306" lon="5.54344">
        <ele>260</ele>
        <time>2022-06-13T12:50:01Z</time>
      </trkpt>
      <trkpt lat="45.33313" lon="5.54329">
        <ele>260.2</ele>
        <time>2022-06-13T12:50:03Z</time>
      </trkpt>
      <trkpt lat="45.33318" lon="5.54309">
        <ele>260.4</ele>
        <time>2022-06-13T12:50:06Z</time>
      </trkpt>
      <trkpt lat="45.33319" lon="5.54291">
        <ele>261.5</ele>
        <time>2022-06-13T12:50:08Z</time>
      </trkpt>
      <trkpt lat="45.33285" lon="5.54055">
        <ele>274.2</ele>
        <time>2022-06-13T12:50:39Z</time>
      </trkpt>
      <trkpt lat="45.33274" lon="5.53986">
        <ele>280.8</ele>
        <time>2022-06-13T12:50:47Z</time>
      </trkpt>
      <trkpt lat="45.33273" lon="5.53972">
        <ele>282.5</ele>
        <time>2022-06-13T12:50:49Z</time>
      </trkpt>
      <trkpt lat="45.33273" lon="5.53958">
        <ele>283.7</ele>
        <time>2022-06-13T12:50:51Z</time>
      </trkpt>
      <trkpt lat="45.33276" lon="5.53947">
        <ele>284.7</ele>
        <time>2022-06-13T12:50:52Z</time>
      </trkpt>
      <trkpt lat="45.3328" lon="5.53935">
        <ele>287.4</ele>
        <time>2022-06-13T12:50:54Z</time>
      </trkpt>
      <trkpt lat="45.33288" lon="5.53927">
        <ele>289.5</ele>
        <time>2022-06-13T12:50:56Z</time>
      </trkpt>
      <trkpt lat="45.33312" lon="5.53911">
        <ele>291.8</ele>
        <time>2022-06-13T12:51:00Z</time>
      </trkpt>
      <trkpt lat="45.33377" lon="5.53893">
        <ele>298.2</ele>
        <time>2022-06-13T12:51:12Z</time>
      </trkpt>
      <trkpt lat="45.3342" lon="5.53879">
        <ele>302.2</ele>
        <time>2022-06-13T12:51:20Z</time>
      </trkpt>
      <trkpt lat="45.33579" lon="5.53798">
        <ele>306.4</ele>
        <time>2022-06-13T12:51:50Z</time>
      </trkpt>
      <trkpt lat="45.33648" lon="5.53822">
        <ele>300.5</ele>
        <time>2022-06-13T12:52:03Z</time>
      </trkpt>
      <trkpt lat="45.33678" lon="5.5383">
        <ele>298.5</ele>
        <time>2022-06-13T12:52:08Z</time>
      </trkpt>
      <trkpt lat="45.33713" lon="5.53832">
        <ele>298.7</ele>
        <time>2022-06-13T12:52:14Z</time>
      </trkpt>
      <trkpt lat="45.33749" lon="5.53818">
        <ele>295.6</ele>
        <time>2022-06-13T12:52:21Z</time>
      </trkpt>
      <trkpt lat="45.33783" lon="5.53785">
        <ele>297</ele>
        <time>2022-06-13T12:52:28Z</time>
      </trkpt>
      <trkpt lat="45.33815" lon="5.5373">
        <ele>300.4</ele>
        <time>2022-06-13T12:52:37Z</time>
      </trkpt>
      <trkpt lat="45.33832" lon="5.53694">
        <ele>302.9</ele>
        <time>2022-06-13T12:52:43Z</time>
      </trkpt>
      <trkpt lat="45.33873" lon="5.53581">
        <ele>310</ele>
        <time>2022-06-13T12:52:59Z</time>
      </trkpt>
      <trkpt lat="45.33885" lon="5.53529">
        <ele>314.2</ele>
        <time>2022-06-13T12:53:06Z</time>
      </trkpt>
      <trkpt lat="45.33893" lon="5.53477">
        <ele>319</ele>
        <time>2022-06-13T12:53:12Z</time>
      </trkpt>
      <trkpt lat="45.33899" lon="5.53454">
        <ele>321.3</ele>
        <time>2022-06-13T12:53:15Z</time>
      </trkpt>
      <trkpt lat="45.33902" lon="5.53438">
        <ele>323.1</ele>
        <time>2022-06-13T12:53:17Z</time>
      </trkpt>
      <trkpt lat="45.33977" lon="5.5339">
        <ele>336.3</ele>
        <time>2022-06-13T12:53:32Z</time>
      </trkpt>
      <trkpt lat="45.34006" lon="5.53201">
        <ele>353</ele>
        <time>2022-06-13T12:53:56Z</time>
      </trkpt>
      <trkpt lat="45.34012" lon="5.53185">
        <ele>354.4</ele>
        <time>2022-06-13T12:53:58Z</time>
      </trkpt>
      <trkpt lat="45.33943" lon="5.53147">
        <ele>354.7</ele>
        <time>2022-06-13T12:54:12Z</time>
      </trkpt>
      <trkpt lat="45.33885" lon="5.53076">
        <ele>357.5</ele>
        <time>2022-06-13T12:54:25Z</time>
      </trkpt>
      <trkpt lat="45.33908" lon="5.53031">
        <ele>359.9</ele>
        <time>2022-06-13T12:54:32Z</time>
      </trkpt>
      <trkpt lat="45.33886" lon="5.52955">
        <ele>360.3</ele>
        <time>2022-06-13T12:54:42Z</time>
      </trkpt>
      <trkpt lat="45.33892" lon="5.52852">
        <ele>360.2</ele>
        <time>2022-06-13T12:54:55Z</time>
      </trkpt>
      <trkpt lat="45.33888" lon="5.52769">
        <ele>361.4</ele>
        <time>2022-06-13T12:55:06Z</time>
      </trkpt>
      <trkpt lat="45.33873" lon="5.52694">
        <ele>363.6</ele>
        <time>2022-06-13T12:55:16Z</time>
      </trkpt>
      <trkpt lat="45.33862" lon="5.52589">
        <ele>365.1</ele>
        <time>2022-06-13T12:55:29Z</time>
      </trkpt>
      <trkpt lat="45.33825" lon="5.5254">
        <ele>365.9</ele>
        <time>2022-06-13T12:55:38Z</time>
      </trkpt>
      <trkpt lat="45.33833" lon="5.52435">
        <ele>368</ele>
        <time>2022-06-13T12:55:51Z</time>
      </trkpt>
      <trkpt lat="45.33841" lon="5.52372">
        <ele>370.3</ele>
        <time>2022-06-13T12:55:59Z</time>
      </trkpt>
      <trkpt lat="45.33851" lon="5.52303">
        <ele>373.1</ele>
        <time>2022-06-13T12:56:08Z</time>
      </trkpt>
      <trkpt lat="45.33857" lon="5.52281">
        <ele>373.8</ele>
        <time>2022-06-13T12:56:11Z</time>
      </trkpt>
      <trkpt lat="45.33899" lon="5.5235">
        <ele>375.2</ele>
        <time>2022-06-13T12:56:22Z</time>
      </trkpt>
      <trkpt lat="45.3392" lon="5.5238">
        <ele>376</ele>
        <time>2022-06-13T12:56:27Z</time>
      </trkpt>
      <trkpt lat="45.33979" lon="5.52436">
        <ele>377.8</ele>
        <time>2022-06-13T12:56:40Z</time>
      </trkpt>
      <trkpt lat="45.34001" lon="5.52494">
        <ele>378</ele>
        <time>2022-06-13T12:56:48Z</time>
      </trkpt>
      <trkpt lat="45.34018" lon="5.52528">
        <ele>378.3</ele>
        <time>2022-06-13T12:56:54Z</time>
      </trkpt>
      <trkpt lat="45.34138" lon="5.52638">
        <ele>382.9</ele>
        <time>2022-06-13T12:57:19Z</time>
      </trkpt>
      <trkpt lat="45.34171" lon="5.52659">
        <ele>382.2</ele>
        <time>2022-06-13T12:57:25Z</time>
      </trkpt>
      <trkpt lat="45.34208" lon="5.52679">
        <ele>379.4</ele>
        <time>2022-06-13T12:57:32Z</time>
      </trkpt>
      <trkpt lat="45.34221" lon="5.52688">
        <ele>382.1</ele>
        <time>2022-06-13T12:57:35Z</time>
      </trkpt>
      <trkpt lat="45.34221" lon="5.52703">
        <ele>382.2</ele>
        <time>2022-06-13T12:57:37Z</time>
      </trkpt>
      <trkpt lat="45.34252" lon="5.52751">
        <ele>381.9</ele>
        <time>2022-06-13T12:57:45Z</time>
      </trkpt>
      <trkpt lat="45.34264" lon="5.52763">
        <ele>381.5</ele>
        <time>2022-06-13T12:57:48Z</time>
      </trkpt>
      <trkpt lat="45.34339" lon="5.52788">
        <ele>378</ele>
        <time>2022-06-13T12:58:01Z</time>
      </trkpt>
      <trkpt lat="45.34345" lon="5.52794">
        <ele>378</ele>
        <time>2022-06-13T12:58:03Z</time>
      </trkpt>
      <trkpt lat="45.34358" lon="5.52796">
        <ele>378</ele>
        <time>2022-06-13T12:58:05Z</time>
      </trkpt>
      <trkpt lat="45.34398" lon="5.52809">
        <ele>378.3</ele>
        <time>2022-06-13T12:58:12Z</time>
      </trkpt>
      <trkpt lat="45.34504" lon="5.52848">
        <ele>384.7</ele>
        <time>2022-06-13T12:58:32Z</time>
      </trkpt>
      <trkpt lat="45.34546" lon="5.5287">
        <ele>386.4</ele>
        <time>2022-06-13T12:58:40Z</time>
      </trkpt>
      <trkpt lat="45.34572" lon="5.52886">
        <ele>386.4</ele>
        <time>2022-06-13T12:58:45Z</time>
      </trkpt>
      <trkpt lat="45.34629" lon="5.52955">
        <ele>387</ele>
        <time>2022-06-13T12:58:58Z</time>
      </trkpt>
      <trkpt lat="45.34637" lon="5.52972">
        <ele>387.1</ele>
        <time>2022-06-13T12:59:01Z</time>
      </trkpt>
      <trkpt lat="45.34641" lon="5.52986">
        <ele>387</ele>
        <time>2022-06-13T12:59:03Z</time>
      </trkpt>
      <trkpt lat="45.34652" lon="5.52939">
        <ele>386.1</ele>
        <time>2022-06-13T12:59:09Z</time>
      </trkpt>
      <trkpt lat="45.34667" lon="5.52905">
        <ele>386.6</ele>
        <time>2022-06-13T12:59:14Z</time>
      </trkpt>
      <trkpt lat="45.3468" lon="5.52888">
        <ele>387.5</ele>
        <time>2022-06-13T12:59:17Z</time>
      </trkpt>
      <trkpt lat="45.34702" lon="5.52872">
        <ele>391.2</ele>
        <time>2022-06-13T12:59:21Z</time>
      </trkpt>
      <trkpt lat="45.34737" lon="5.52863">
        <ele>395.4</ele>
        <time>2022-06-13T12:59:28Z</time>
      </trkpt>
      <trkpt lat="45.34781" lon="5.52862">
        <ele>398.9</ele>
        <time>2022-06-13T12:59:35Z</time>
      </trkpt>
      <trkpt lat="45.34807" lon="5.52867">
        <ele>398.5</ele>
        <time>2022-06-13T12:59:40Z</time>
      </trkpt>
      <trkpt lat="45.34837" lon="5.52881">
        <ele>393.3</ele>
        <time>2022-06-13T12:59:46Z</time>
      </trkpt>
      <trkpt lat="45.34886" lon="5.52855">
        <ele>392.9</ele>
        <time>2022-06-13T12:59:55Z</time>
      </trkpt>
      <trkpt lat="45.34922" lon="5.52959">
        <ele>393.8</ele>
        <time>2022-06-13T13:00:10Z</time>
      </trkpt>
      <trkpt lat="45.34974" lon="5.53079">
        <ele>395.2</ele>
        <time>2022-06-13T13:00:27Z</time>
      </trkpt>
      <trkpt lat="45.35029" lon="5.53268">
        <ele>395.9</ele>
        <time>2022-06-13T13:00:53Z</time>
      </trkpt>
      <trkpt lat="45.35063" lon="5.5337">
        <ele>393.8</ele>
        <time>2022-06-13T13:01:07Z</time>
      </trkpt>
      <trkpt lat="45.35094" lon="5.53433">
        <ele>395.3</ele>
        <time>2022-06-13T13:01:16Z</time>
      </trkpt>
      <trkpt lat="45.35099" lon="5.53447">
        <ele>395.2</ele>
        <time>2022-06-13T13:01:18Z</time>
      </trkpt>
      <trkpt lat="45.35102" lon="5.53463">
        <ele>394.7</ele>
        <time>2022-06-13T13:01:21Z</time>
      </trkpt>
      <trkpt lat="45.35105" lon="5.53522">
        <ele>394.1</ele>
        <time>2022-06-13T13:01:28Z</time>
      </trkpt>
      <trkpt lat="45.35109" lon="5.53543">
        <ele>394.1</ele>
        <time>2022-06-13T13:01:31Z</time>
      </trkpt>
      <trkpt lat="45.35117" lon="5.53562">
        <ele>393.4</ele>
        <time>2022-06-13T13:01:33Z</time>
      </trkpt>
      <trkpt lat="45.35191" lon="5.53644">
        <ele>388.2</ele>
        <time>2022-06-13T13:01:50Z</time>
      </trkpt>
      <trkpt lat="45.35217" lon="5.53686">
        <ele>387.2</ele>
        <time>2022-06-13T13:01:57Z</time>
      </trkpt>
      <trkpt lat="45.35258" lon="5.53758">
        <ele>382.8</ele>
        <time>2022-06-13T13:02:09Z</time>
      </trkpt>
      <trkpt lat="45.35291" lon="5.53818">
        <ele>382</ele>
        <time>2022-06-13T13:02:18Z</time>
      </trkpt>
      <trkpt lat="45.35296" lon="5.5383">
        <ele>383.5</ele>
        <time>2022-06-13T13:02:20Z</time>
      </trkpt>
      <trkpt lat="45.35327" lon="5.53769">
        <ele>385.5</ele>
        <time>2022-06-13T13:02:29Z</time>
      </trkpt>
      <trkpt lat="45.35345" lon="5.53711">
        <ele>386.2</ele>
        <time>2022-06-13T13:02:37Z</time>
      </trkpt>
      <trkpt lat="45.35351" lon="5.53689">
        <ele>386.2</ele>
        <time>2022-06-13T13:02:40Z</time>
      </trkpt>
      <trkpt lat="45.35359" lon="5.53662">
        <ele>387.7</ele>
        <time>2022-06-13T13:02:44Z</time>
      </trkpt>
      <trkpt lat="45.35373" lon="5.53633">
        <ele>389.7</ele>
        <time>2022-06-13T13:02:48Z</time>
      </trkpt>
      <trkpt lat="45.35379" lon="5.53629">
        <ele>390.2</ele>
        <time>2022-06-13T13:02:49Z</time>
      </trkpt>
      <trkpt lat="45.35439" lon="5.53594">
        <ele>393.8</ele>
        <time>2022-06-13T13:03:01Z</time>
      </trkpt>
      <trkpt lat="45.35469" lon="5.53571">
        <ele>395.8</ele>
        <time>2022-06-13T13:03:07Z</time>
      </trkpt>
      <trkpt lat="45.35443" lon="5.5349">
        <ele>394.5</ele>
        <time>2022-06-13T13:03:18Z</time>
      </trkpt>
      <trkpt lat="45.35435" lon="5.53456">
        <ele>393.3</ele>
        <time>2022-06-13T13:03:23Z</time>
      </trkpt>
      <trkpt lat="45.35425" lon="5.5339">
        <ele>391.6</ele>
        <time>2022-06-13T13:03:31Z</time>
      </trkpt>
      <trkpt lat="45.35431" lon="5.53298">
        <ele>390.3</ele>
        <time>2022-06-13T13:03:43Z</time>
      </trkpt>
      <trkpt lat="45.35446" lon="5.53229">
        <ele>393.2</ele>
        <time>2022-06-13T13:03:52Z</time>
      </trkpt>
      <trkpt lat="45.35453" lon="5.53166">
        <ele>391.6</ele>
        <time>2022-06-13T13:04:00Z</time>
      </trkpt>
      <trkpt lat="45.35458" lon="5.5309">
        <ele>384.3</ele>
        <time>2022-06-13T13:04:09Z</time>
      </trkpt>
      <trkpt lat="45.35469" lon="5.53036">
        <ele>381.8</ele>
        <time>2022-06-13T13:04:16Z</time>
      </trkpt>
      <trkpt lat="45.35472" lon="5.52989">
        <ele>382</ele>
        <time>2022-06-13T13:04:22Z</time>
      </trkpt>
      <trkpt lat="45.35478" lon="5.52948">
        <ele>382.8</ele>
        <time>2022-06-13T13:04:27Z</time>
      </trkpt>
      <trkpt lat="45.35496" lon="5.52908">
        <ele>386.6</ele>
        <time>2022-06-13T13:04:33Z</time>
      </trkpt>
      <trkpt lat="45.35522" lon="5.52876">
        <ele>387.6</ele>
        <time>2022-06-13T13:04:39Z</time>
      </trkpt>
      <trkpt lat="45.35529" lon="5.52858">
        <ele>388.2</ele>
        <time>2022-06-13T13:04:42Z</time>
      </trkpt>
      <trkpt lat="45.35534" lon="5.52837">
        <ele>389.1</ele>
        <time>2022-06-13T13:04:45Z</time>
      </trkpt>
      <trkpt lat="45.35542" lon="5.52821">
        <ele>390.3</ele>
        <time>2022-06-13T13:04:47Z</time>
      </trkpt>
      <trkpt lat="45.3556" lon="5.52812">
        <ele>392.4</ele>
        <time>2022-06-13T13:04:51Z</time>
      </trkpt>
      <trkpt lat="45.35585" lon="5.52811">
        <ele>393.2</ele>
        <time>2022-06-13T13:04:55Z</time>
      </trkpt>
      <trkpt lat="45.35604" lon="5.52803">
        <ele>396</ele>
        <time>2022-06-13T13:04:59Z</time>
      </trkpt>
      <trkpt lat="45.35624" lon="5.5279">
        <ele>397.7</ele>
        <time>2022-06-13T13:05:03Z</time>
      </trkpt>
      <trkpt lat="45.35634" lon="5.52786">
        <ele>398.4</ele>
        <time>2022-06-13T13:05:04Z</time>
      </trkpt>
      <trkpt lat="45.35657" lon="5.52772">
        <ele>399.5</ele>
        <time>2022-06-13T13:05:09Z</time>
      </trkpt>
      <trkpt lat="45.35731" lon="5.5272">
        <ele>399.3</ele>
        <time>2022-06-13T13:05:24Z</time>
      </trkpt>
      <trkpt lat="45.35749" lon="5.52699">
        <ele>399.2</ele>
        <time>2022-06-13T13:05:28Z</time>
      </trkpt>
      <trkpt lat="45.35762" lon="5.52675">
        <ele>399.2</ele>
        <time>2022-06-13T13:05:31Z</time>
      </trkpt>
      <trkpt lat="45.35767" lon="5.5268">
        <ele>399.7</ele>
        <time>2022-06-13T13:05:33Z</time>
      </trkpt>
      <trkpt lat="45.35802" lon="5.52694">
        <ele>401.8</ele>
        <time>2022-06-13T13:05:39Z</time>
      </trkpt>
      <trkpt lat="45.35809" lon="5.52705">
        <ele>402.2</ele>
        <time>2022-06-13T13:05:41Z</time>
      </trkpt>
      <trkpt lat="45.35821" lon="5.52768">
        <ele>405.9</ele>
        <time>2022-06-13T13:05:49Z</time>
      </trkpt>
      <trkpt lat="45.35825" lon="5.52781">
        <ele>407.2</ele>
        <time>2022-06-13T13:05:51Z</time>
      </trkpt>
    </trkseg>
  </trk>
  <trk>
    <name><![CDATA[St Jean-Le Mercuel via Charnècles, OR14955392_2]]></name>
    <extensions>
      <line xmlns="http://www.topografix.com/GPX/gpx_style/0/2">
        <color>00FF00</color>
        <width>4</width>
      </line>
    </extensions>
    <trkseg>
      <trkpt lat="45.35299" lon="5.53844">
        <ele>384.4</ele>
      </trkpt>
      <trkpt lat="45.35298" lon="5.5388">
        <ele>384.6</ele>
      </trkpt>
      <trkpt lat="45.35291" lon="5.53951">
        <ele>380.7</ele>
      </trkpt>
      <trkpt lat="45.35322" lon="5.54039">
        <ele>380.4</ele>
      </trkpt>
      <trkpt lat="45.35341" lon="5.54121">
        <ele>379.9</ele>
      </trkpt>
      <trkpt lat="45.35387" lon="5.54213">
        <ele>378.1</ele>
      </trkpt>
      <trkpt lat="45.35429" lon="5.54426">
        <ele>375.9</ele>
      </trkpt>
      <trkpt lat="45.35441" lon="5.54584">
        <ele>374.6</ele>
      </trkpt>
      <trkpt lat="45.35458" lon="5.54703">
        <ele>371.8</ele>
      </trkpt>
      <trkpt lat="45.35479" lon="5.54795">
        <ele>372.7</ele>
      </trkpt>
      <trkpt lat="45.35565" lon="5.5499">
        <ele>370.1</ele>
      </trkpt>
      <trkpt lat="45.35565" lon="5.55052">
        <ele>369.3</ele>
      </trkpt>
      <trkpt lat="45.35562" lon="5.55142">
        <ele>365.3</ele>
      </trkpt>
      <trkpt lat="45.3543" lon="5.55267">
        <ele>356.8</ele>
      </trkpt>
      <trkpt lat="45.35391" lon="5.55293">
        <ele>354.6</ele>
      </trkpt>
      <trkpt lat="45.3531" lon="5.55299">
        <ele>347.6</ele>
      </trkpt>
      <trkpt lat="45.35179" lon="5.55627">
        <ele>322.4</ele>
      </trkpt>
      <trkpt lat="45.35162" lon="5.55728">
        <ele>322.9</ele>
      </trkpt>
      <trkpt lat="45.35142" lon="5.55778">
        <ele>323</ele>
      </trkpt>
      <trkpt lat="45.35061" lon="5.55894">
        <ele>325.8</ele>
      </trkpt>
      <trkpt lat="45.35032" lon="5.55984">
        <ele>328.9</ele>
      </trkpt>
      <trkpt lat="45.34983" lon="5.55952">
        <ele>330.5</ele>
      </trkpt>
      <trkpt lat="45.34955" lon="5.55909">
        <ele>333.1</ele>
      </trkpt>
      <trkpt lat="45.34915" lon="5.55851">
        <ele>339.3</ele>
      </trkpt>
      <trkpt lat="45.34853" lon="5.55803">
        <ele>344.2</ele>
      </trkpt>
      <trkpt lat="45.34833" lon="5.55801">
        <ele>344.3</ele>
      </trkpt>
      <trkpt lat="45.34746" lon="5.55748">
        <ele>338.5</ele>
      </trkpt>
      <trkpt lat="45.34696" lon="5.55655">
        <ele>332.6</ele>
      </trkpt>
      <trkpt lat="45.34669" lon="5.55627">
        <ele>331.1</ele>
      </trkpt>
      <trkpt lat="45.34615" lon="5.55612">
        <ele>321.7</ele>
      </trkpt>
      <trkpt lat="45.34532" lon="5.55565">
        <ele>326</ele>
      </trkpt>
      <trkpt lat="45.34408" lon="5.55419">
        <ele>322</ele>
      </trkpt>
      <trkpt lat="45.34287" lon="5.55185">
        <ele>320.2</ele>
      </trkpt>
      <trkpt lat="45.34243" lon="5.55044">
        <ele>318</ele>
      </trkpt>
      <trkpt lat="45.34177" lon="5.54857">
        <ele>317.6</ele>
      </trkpt>
      <trkpt lat="45.34106" lon="5.547">
        <ele>315.2</ele>
      </trkpt>
      <trkpt lat="45.34051" lon="5.54622">
        <ele>316.4</ele>
      </trkpt>
      <trkpt lat="45.3402" lon="5.54583">
        <ele>317.7</ele>
      </trkpt>
      <trkpt lat="45.3397" lon="5.54546">
        <ele>318.3</ele>
      </trkpt>
      <trkpt lat="45.33916" lon="5.54515">
        <ele>318.4</ele>
      </trkpt>
      <trkpt lat="45.3386" lon="5.54465">
        <ele>316</ele>
      </trkpt>
      <trkpt lat="45.33846" lon="5.54444">
        <ele>315.5</ele>
      </trkpt>
      <trkpt lat="45.33829" lon="5.54384">
        <ele>313.9</ele>
      </trkpt>
      <trkpt lat="45.3382" lon="5.54313">
        <ele>308.7</ele>
      </trkpt>
      <trkpt lat="45.3378" lon="5.54264">
        <ele>312.7</ele>
      </trkpt>
      <trkpt lat="45.33741" lon="5.54326">
        <ele>311.7</ele>
      </trkpt>
      <trkpt lat="45.33729" lon="5.54324">
        <ele>314.4</ele>
      </trkpt>
      <trkpt lat="45.33689" lon="5.54246">
        <ele>315.6</ele>
      </trkpt>
      <trkpt lat="45.33629" lon="5.54189">
        <ele>312.5</ele>
      </trkpt>
      <trkpt lat="45.3357" lon="5.54119">
        <ele>307.9</ele>
      </trkpt>
      <trkpt lat="45.33491" lon="5.53999">
        <ele>304.7</ele>
      </trkpt>
      <trkpt lat="45.33424" lon="5.53889">
        <ele>302.2</ele>
      </trkpt>
    </trkseg>
  </trk>
</gpx>